sensor_id;sensor_type;location;lat;lon;timestamp;pressure;altitude;pressure_sealevel;temperature;humidity
38038;BME280;23843;51.320;12.340;2024-02-28T00:02:15;100510.22;;;7.23;67.25
38038;BME280;23843;51.320;12.340;2024-02-28T00:04:40;100503.88;;;7.23;67.33
38038;BME280;23843;51.320;12.340;2024-02-28T00:07:06;100506.66;;;7.23;66.97
38038;BME280;23843;51.320;12.340;2024-02-28T00:09:31;100513.00;;;7.23;67.00
38038;BME280;23843;51.320;12.340;2024-02-28T00:11:58;100506.00;;;7.21;66.60
38038;BME280;23843;51.320;12.340;2024-02-28T00:14:24;100513.44;;;7.20;67.88
38038;BME280;23843;51.320;12.340;2024-02-28T00:16:49;100510.47;;;7.22;67.15
38038;BME280;23843;51.320;12.340;2024-02-28T00:19:15;100511.09;;;7.24;67.51
38038;BME280;23843;51.320;12.340;2024-02-28T00:21:40;100511.72;;;7.26;66.67
38038;BME280;23843;51.320;12.340;2024-02-28T00:24:06;100514.69;;;7.24;66.87
38038;BME280;23843;51.320;12.340;2024-02-28T00:26:31;100517.47;;;7.24;66.53
38038;BME280;23843;51.320;12.340;2024-02-28T00:28:58;100518.75;;;7.22;66.95
38038;BME280;23843;51.320;12.340;2024-02-28T00:31:24;100521.72;;;7.20;68.00
38038;BME280;23843;51.320;12.340;2024-02-28T00:33:49;100520.41;;;7.16;67.74
38038;BME280;23843;51.320;12.340;2024-02-28T00:36:15;100520.41;;;7.16;67.15
38038;BME280;23843;51.320;12.340;2024-02-28T00:38:40;100526.19;;;7.15;67.51
38038;BME280;23843;51.320;12.340;2024-02-28T00:41:06;100528.72;;;7.16;67.49
38038;BME280;23843;51.320;12.340;2024-02-28T00:43:31;100529.78;;;7.15;67.55
38038;BME280;23843;51.320;12.340;2024-02-28T00:45:58;100519.59;;;7.16;67.49
38038;BME280;23843;51.320;12.340;2024-02-28T00:48:23;100525.75;;;7.18;66.93
38038;BME280;23843;51.320;12.340;2024-02-28T00:50:49;100525.53;;;7.19;67.29
38038;BME280;23843;51.320;12.340;2024-02-28T00:53:14;100518.97;;;7.20;67.49
38038;BME280;23843;51.320;12.340;2024-02-28T00:55:40;100520.88;;;7.20;68.16
38038;BME280;23843;51.320;12.340;2024-02-28T00:58:05;100524.47;;;7.20;67.66
38038;BME280;23843;51.320;12.340;2024-02-28T01:00:31;100515.34;;;7.20;66.66
38038;BME280;23843;51.320;12.340;2024-02-28T01:02:58;100520.66;;;7.21;67.69
38038;BME280;23843;51.320;12.340;2024-02-28T01:05:23;100520.47;;;7.23;67.81
38038;BME280;23843;51.320;12.340;2024-02-28T01:07:48;100521.72;;;7.20;66.70
38038;BME280;23843;51.320;12.340;2024-02-28T01:10:14;100521.06;;;7.18;67.49
38038;BME280;23843;51.320;12.340;2024-02-28T01:12:40;100519.38;;;7.17;68.16
38038;BME280;23843;51.320;12.340;2024-02-28T01:15:06;100520.22;;;7.18;67.42
38038;BME280;23843;51.320;12.340;2024-02-28T01:17:31;100522.97;;;7.18;67.75
38038;BME280;23843;51.320;12.340;2024-02-28T01:19:58;100524.88;;;7.17;67.97
38038;BME280;23843;51.320;12.340;2024-02-28T01:22:24;100520.41;;;7.16;67.60
38038;BME280;23843;51.320;12.340;2024-02-28T01:24:49;100516.84;;;7.16;67.19
38038;BME280;23843;51.320;12.340;2024-02-28T01:27:15;100518.50;;;7.17;68.25
38038;BME280;23843;51.320;12.340;2024-02-28T01:29:40;100517.66;;;7.16;67.64
38038;BME280;23843;51.320;12.340;2024-02-28T01:32:06;100515.75;;;7.17;67.81
38038;BME280;23843;51.320;12.340;2024-02-28T01:34:32;100514.91;;;7.16;67.79
38038;BME280;23843;51.320;12.340;2024-02-28T01:36:58;100520.22;;;7.18;67.25
38038;BME280;23843;51.320;12.340;2024-02-28T01:39:24;100517.47;;;7.18;67.50
38038;BME280;23843;51.320;12.340;2024-02-28T01:41:53;100519.38;;;7.17;67.60
38038;BME280;23843;51.320;12.340;2024-02-28T01:44:18;100517.25;;;7.19;67.32
38038;BME280;23843;51.320;12.340;2024-02-28T01:46:44;100516.19;;;7.20;66.96
38038;BME280;23843;51.320;12.340;2024-02-28T01:49:10;100514.50;;;7.19;67.91
38038;BME280;23843;51.320;12.340;2024-02-28T01:51:35;100517.06;;;7.21;66.88
38038;BME280;23843;51.320;12.340;2024-02-28T01:54:02;100520.66;;;7.21;67.42
38038;BME280;23843;51.320;12.340;2024-02-28T01:56:29;100519.38;;;7.24;68.28
38038;BME280;23843;51.320;12.340;2024-02-28T01:58:56;100512.78;;;7.25;68.16
38038;BME280;23843;51.320;12.340;2024-02-28T02:01:21;100513.84;;;7.24;67.37
38038;BME280;23843;51.320;12.340;2024-02-28T02:03:47;100509.19;;;7.24;67.22
38038;BME280;23843;51.320;12.340;2024-02-28T02:06:13;100513.66;;;7.25;67.53
38038;BME280;23843;51.320;12.340;2024-02-28T02:08:38;100510.03;;;7.25;66.65
38038;BME280;23843;51.320;12.340;2024-02-28T02:11:05;100512.59;;;7.26;67.38
38038;BME280;23843;51.320;12.340;2024-02-28T02:13:31;100511.72;;;7.26;67.58
38038;BME280;23843;51.320;12.340;2024-02-28T02:15:57;100508.78;;;7.27;67.43
38038;BME280;23843;51.320;12.340;2024-02-28T02:18:22;100509.81;;;7.26;67.67
38038;BME280;23843;51.320;12.340;2024-02-28T02:20:50;100520.88;;;7.26;67.39
38038;BME280;23843;51.320;12.340;2024-02-28T02:23:19;100519.16;;;7.25;67.25
38038;BME280;23843;51.320;12.340;2024-02-28T02:25:45;100519.59;;;7.22;68.04
38038;BME280;23843;51.320;12.340;2024-02-28T02:28:11;100514.94;;;7.23;68.34
38038;BME280;23843;51.320;12.340;2024-02-28T02:30:37;100525.75;;;7.24;67.32
38038;BME280;23843;51.320;12.340;2024-02-28T02:33:03;100518.31;;;7.25;67.36
38038;BME280;23843;51.320;12.340;2024-02-28T02:35:29;100509.81;;;7.26;67.85
38038;BME280;23843;51.320;12.340;2024-02-28T02:37:54;100519.81;;;7.27;67.38
38038;BME280;23843;51.320;12.340;2024-02-28T02:40:21;100522.38;;;7.29;67.00
38038;BME280;23843;51.320;12.340;2024-02-28T02:42:47;100519.63;;;7.29;67.46
38038;BME280;23843;51.320;12.340;2024-02-28T02:45:12;100524.28;;;7.28;67.65
38038;BME280;23843;51.320;12.340;2024-02-28T02:47:38;100526.19;;;7.28;67.72
38038;BME280;23843;51.320;12.340;2024-02-28T02:50:04;100518.97;;;7.27;67.51
38038;BME280;23843;51.320;12.340;2024-02-28T02:52:29;100530.22;;;7.25;67.45
38038;BME280;23843;51.320;12.340;2024-02-28T02:54:55;100526.00;;;7.23;68.22
38038;BME280;23843;51.320;12.340;2024-02-28T02:57:22;100532.78;;;7.20;67.59
38038;BME280;23843;51.320;12.340;2024-02-28T02:59:47;100530.88;;;7.21;67.03
38038;BME280;23843;51.320;12.340;2024-02-28T03:02:13;100540.00;;;7.21;67.55
38038;BME280;23843;51.320;12.340;2024-02-28T03:04:38;100534.69;;;7.20;67.45
38038;BME280;23843;51.320;12.340;2024-02-28T03:07:04;100541.47;;;7.17;68.08
38038;BME280;23843;51.320;12.340;2024-02-28T03:09:29;100538.94;;;7.16;67.59
38038;BME280;23843;51.320;12.340;2024-02-28T03:11:55;100543.59;;;7.15;67.69
38038;BME280;23843;51.320;12.340;2024-02-28T03:14:21;100546.56;;;7.14;67.49
38038;BME280;23843;51.320;12.340;2024-02-28T03:16:47;100545.72;;;7.13;67.94
38038;BME280;23843;51.320;12.340;2024-02-28T03:19:13;100558.88;;;7.11;67.18
38038;BME280;23843;51.320;12.340;2024-02-28T03:21:38;100554.63;;;7.09;66.94
38038;BME280;23843;51.320;12.340;2024-02-28T03:24:04;100551.22;;;7.07;66.77
38038;BME280;23843;51.320;12.340;2024-02-28T03:26:29;100558.66;;;7.06;67.92
38038;BME280;23843;51.320;12.340;2024-02-28T03:28:55;100560.56;;;7.06;67.58
38038;BME280;23843;51.320;12.340;2024-02-28T03:31:22;100562.47;;;7.05;67.32
38038;BME280;23843;51.320;12.340;2024-02-28T03:33:47;100569.72;;;7.06;67.48
38038;BME280;23843;51.320;12.340;2024-02-28T03:36:12;100566.28;;;7.04;67.20
38038;BME280;23843;51.320;12.340;2024-02-28T03:38:38;100575.63;;;7.03;67.57
38038;BME280;23843;51.320;12.340;2024-02-28T03:41:05;100570.13;;;7.03;67.51
38038;BME280;23843;51.320;12.340;2024-02-28T03:43:30;100579.44;;;7.02;67.63
38038;BME280;23843;51.320;12.340;2024-02-28T03:45:56;100579.44;;;7.02;67.55
38038;BME280;23843;51.320;12.340;2024-02-28T03:48:23;100586.06;;;7.01;66.98
38038;BME280;23843;51.320;12.340;2024-02-28T03:50:48;100584.56;;;6.98;67.79
38038;BME280;23843;51.320;12.340;2024-02-28T03:53:13;100581.56;;;6.93;67.11
38038;BME280;23843;51.320;12.340;2024-02-28T03:55:39;100590.06;;;6.92;67.42
38038;BME280;23843;51.320;12.340;2024-02-28T03:58:05;100586.63;;;6.90;66.80
38038;BME280;23843;51.320;12.340;2024-02-28T04:00:30;100586.63;;;6.90;67.34
38038;BME280;23843;51.320;12.340;2024-02-28T04:02:55;100583.22;;;6.88;67.44
38038;BME280;23843;51.320;12.340;2024-02-28T04:05:22;100594.94;;;6.90;67.21
38038;BME280;23843;51.320;12.340;2024-02-28T04:07:48;100589.59;;;6.88;66.92
38038;BME280;23843;51.320;12.340;2024-02-28T04:10:13;100599.16;;;6.86;67.45
38038;BME280;23843;51.320;12.340;2024-02-28T04:12:55;100594.91;;;6.83;67.60
38038;BME280;23843;51.320;12.340;2024-02-28T04:15:21;100613.56;;;6.81;67.70
38038;BME280;23843;51.320;12.340;2024-02-28T04:17:47;100619.28;;;6.80;67.94
38038;BME280;23843;51.320;12.340;2024-02-28T04:20:12;100624.00;;;6.79;67.60
38038;BME280;23843;51.320;12.340;2024-02-28T04:22:39;100633.53;;;6.77;66.95
38038;BME280;23843;51.320;12.340;2024-02-28T04:25:05;100631.81;;;6.76;66.89
38038;BME280;23843;51.320;12.340;2024-02-28T04:27:31;100638.38;;;6.75;66.78
38038;BME280;23843;51.320;12.340;2024-02-28T04:29:56;100631.78;;;6.69;67.40
38038;BME280;23843;51.320;12.340;2024-02-28T04:32:22;100637.31;;;6.69;67.46
38038;BME280;23843;51.320;12.340;2024-02-28T04:34:47;100630.06;;;6.68;67.26
38038;BME280;23843;51.320;12.340;2024-02-28T04:37:13;100637.69;;;6.66;66.99
38038;BME280;23843;51.320;12.340;2024-02-28T04:39:40;100642.16;;;6.67;68.05
38038;BME280;23843;51.320;12.340;2024-02-28T04:42:05;100643.22;;;6.66;67.51
38038;BME280;23843;51.320;12.340;2024-02-28T04:44:30;100642.16;;;6.67;67.68
38038;BME280;23843;51.320;12.340;2024-02-28T04:46:56;100641.31;;;6.67;67.55
38038;BME280;23843;51.320;12.340;2024-02-28T04:49:21;100643.88;;;6.68;67.16
38038;BME280;23843;51.320;12.340;2024-02-28T04:51:47;100649.41;;;6.68;68.10
38038;BME280;23843;51.320;12.340;2024-02-28T04:54:13;100647.50;;;6.69;67.16
38038;BME280;23843;51.320;12.340;2024-02-28T04:56:41;100651.97;;;6.70;67.08
38038;BME280;23843;51.320;12.340;2024-02-28T04:59:06;100651.09;;;6.69;67.37
38038;BME280;23843;51.320;12.340;2024-02-28T05:01:31;100655.97;;;6.67;67.48
38038;BME280;23843;51.320;12.340;2024-02-28T05:03:57;100651.50;;;6.66;67.00
38038;BME280;23843;51.320;12.340;2024-02-28T05:06:22;100649.59;;;6.67;67.55
38038;BME280;23843;51.320;12.340;2024-02-28T05:08:48;100653.41;;;6.65;67.88
38038;BME280;23843;51.320;12.340;2024-02-28T05:11:13;100643.66;;;6.63;67.35
38038;BME280;23843;51.320;12.340;2024-02-28T05:13:40;100642.78;;;6.62;67.40
38038;BME280;23843;51.320;12.340;2024-02-28T05:16:12;100645.53;;;6.62;66.98
38038;BME280;23843;51.320;12.340;2024-02-28T05:18:37;100651.94;;;6.63;67.47
38038;BME280;23843;51.320;12.340;2024-02-28T05:21:03;100652.78;;;6.63;67.31
38038;BME280;23843;51.320;12.340;2024-02-28T05:23:29;100655.72;;;6.62;67.41
38038;BME280;23843;51.320;12.340;2024-02-28T05:25:54;100664.88;;;6.62;67.26
38038;BME280;23843;51.320;12.340;2024-02-28T05:28:19;100669.34;;;6.63;67.17
38038;BME280;23843;51.320;12.340;2024-02-28T05:30:46;100669.34;;;6.63;67.07
38038;BME280;23843;51.320;12.340;2024-02-28T05:33:12;100676.75;;;6.63;67.70
38038;BME280;23843;51.320;12.340;2024-02-28T05:35:37;100679.53;;;6.63;67.57
38038;BME280;23843;51.320;12.340;2024-02-28T05:38:03;100681.63;;;6.61;67.78
38038;BME280;23843;51.320;12.340;2024-02-28T05:40:29;100680.78;;;6.60;68.08
38038;BME280;23843;51.320;12.340;2024-02-28T05:42:54;100681.81;;;6.59;67.19
38038;BME280;23843;51.320;12.340;2024-02-28T05:45:20;100692.22;;;6.57;67.46
38038;BME280;23843;51.320;12.340;2024-02-28T05:47:46;100694.78;;;6.59;67.54
38038;BME280;23843;51.320;12.340;2024-02-28T05:50:12;100702.19;;;6.58;68.00
38038;BME280;23843;51.320;12.340;2024-02-28T05:52:38;100703.28;;;6.57;67.62
38038;BME280;23843;51.320;12.340;2024-02-28T05:55:04;100704.31;;;6.56;67.26
38038;BME280;23843;51.320;12.340;2024-02-28T05:57:29;100704.31;;;6.56;67.16
38038;BME280;23843;51.320;12.340;2024-02-28T05:59:55;100708.13;;;6.55;68.23
38038;BME280;23843;51.320;12.340;2024-02-28T06:02:20;100697.94;;;6.56;67.42
38038;BME280;23843;51.320;12.340;2024-02-28T06:04:47;100704.09;;;6.58;67.39
38038;BME280;23843;51.320;12.340;2024-02-28T06:07:13;100708.78;;;6.57;67.69
38038;BME280;23843;51.320;12.340;2024-02-28T06:09:38;100704.09;;;6.58;66.81
38038;BME280;23843;51.320;12.340;2024-02-28T06:12:04;100717.28;;;6.56;66.82
38038;BME280;23843;51.320;12.340;2024-02-28T06:14:29;100711.75;;;6.56;67.35
38038;BME280;23843;51.320;12.340;2024-02-28T06:16:55;100723.66;;;6.56;67.06
38038;BME280;23843;51.320;12.340;2024-02-28T06:19:20;100727.84;;;6.52;67.08
38038;BME280;23843;51.320;12.340;2024-02-28T06:21:47;100731.41;;;6.46;67.68
38038;BME280;23843;51.320;12.340;2024-02-28T06:24:12;100733.13;;;6.47;67.58
38038;BME280;23843;51.320;12.340;2024-02-28T06:26:38;100728.66;;;6.46;67.54
38038;BME280;23843;51.320;12.340;2024-02-28T06:29:03;100738.22;;;6.50;67.06
38038;BME280;23843;51.320;12.340;2024-02-28T06:31:29;100736.31;;;6.51;66.98
38038;BME280;23843;51.320;12.340;2024-02-28T06:33:54;100747.34;;;6.51;66.93
38038;BME280;23843;51.320;12.340;2024-02-28T06:36:21;100746.72;;;6.49;67.81
38038;BME280;23843;51.320;12.340;2024-02-28T06:38:48;100753.97;;;6.50;67.82
38038;BME280;23843;51.320;12.340;2024-02-28T06:41:13;100762.00;;;6.51;67.03
38038;BME280;23843;51.320;12.340;2024-02-28T06:43:38;100770.97;;;6.53;67.73
38038;BME280;23843;51.320;12.340;2024-02-28T06:46:04;100768.00;;;6.55;66.91
38038;BME280;23843;51.320;12.340;2024-02-28T06:48:30;100775.44;;;6.54;67.22
38038;BME280;23843;51.320;12.340;2024-02-28T06:50:55;100772.19;;;6.51;66.85
38038;BME280;23843;51.320;12.340;2024-02-28T06:53:21;100775.19;;;6.49;67.38
38038;BME280;23843;51.320;12.340;2024-02-28T06:55:47;100777.94;;;6.49;67.10
38038;BME280;23843;51.320;12.340;2024-02-28T06:58:13;100779.00;;;6.48;67.68
38038;BME280;23843;51.320;12.340;2024-02-28T07:00:38;100786.41;;;6.48;67.15
38038;BME280;23843;51.320;12.340;2024-02-28T07:03:04;100767.09;;;6.48;67.79
38038;BME280;23843;51.320;12.340;2024-02-28T07:05:30;100772.63;;;6.48;67.46
38038;BME280;23843;51.320;12.340;2024-02-28T07:07:55;100763.47;;;6.47;67.83
38038;BME280;23843;51.320;12.340;2024-02-28T07:10:20;100769.38;;;6.44;67.50
38038;BME280;23843;51.320;12.340;2024-02-28T07:12:47;100781.28;;;6.45;68.19
38038;BME280;23843;51.320;12.340;2024-02-28T07:15:13;100782.78;;;6.47;67.88
38038;BME280;23843;51.320;12.340;2024-02-28T07:17:38;100786.78;;;6.45;67.55
38038;BME280;23843;51.320;12.340;2024-02-28T07:20:05;100791.47;;;6.44;68.06
38038;BME280;23843;51.320;12.340;2024-02-28T07:22:30;100788.50;;;6.46;67.15
38038;BME280;23843;51.320;12.340;2024-02-28T07:24:56;100792.78;;;6.48;67.38
38038;BME280;23843;51.320;12.340;2024-02-28T07:27:22;100799.16;;;6.49;67.78
38038;BME280;23843;51.320;12.340;2024-02-28T07:29:48;100798.13;;;6.50;66.89
38038;BME280;23843;51.320;12.340;2024-02-28T07:32:14;100796.00;;;6.52;67.63
38038;BME280;23843;51.320;12.340;2024-02-28T07:34:39;100797.03;;;6.51;67.31
38038;BME280;23843;51.320;12.340;2024-02-28T07:37:05;100801.31;;;6.53;66.84
38038;BME280;23843;51.320;12.340;2024-02-28T07:39:31;100797.94;;;6.58;67.06
38038;BME280;23843;51.320;12.340;2024-02-28T07:41:56;100796.72;;;6.60;67.47
38038;BME280;23843;51.320;12.340;2024-02-28T07:44:21;100802.91;;;6.62;67.13
38038;BME280;23843;51.320;12.340;2024-02-28T07:46:48;100806.69;;;6.61;66.79
38038;BME280;23843;51.320;12.340;2024-02-28T07:49:14;100804.38;;;6.65;67.13
38038;BME280;23843;51.320;12.340;2024-02-28T07:51:39;100798.09;;;6.71;66.83
38038;BME280;23843;51.320;12.340;2024-02-28T07:54:05;100807.47;;;6.77;67.64
38038;BME280;23843;51.320;12.340;2024-02-28T07:56:33;100808.56;;;6.82;66.65
38038;BME280;23843;51.320;12.340;2024-02-28T07:58:59;100810.09;;;6.85;66.35
38038;BME280;23843;51.320;12.340;2024-02-28T08:01:24;100799.03;;;6.85;66.27
38038;BME280;23843;51.320;12.340;2024-02-28T08:03:51;100798.19;;;6.84;67.05
38038;BME280;23843;51.320;12.340;2024-02-28T08:06:16;100791.19;;;6.88;66.47
38038;BME280;23843;51.320;12.340;2024-02-28T08:08:44;100782.56;;;6.98;66.71
38038;BME280;23843;51.320;12.340;2024-02-28T08:11:09;100781.59;;;7.12;66.45
38038;BME280;23843;51.320;12.340;2024-02-28T08:13:34;100787.25;;;7.32;67.15
38038;BME280;23843;51.320;12.340;2024-02-28T08:16:00;100789.69;;;7.48;65.74
38038;BME280;23843;51.320;12.340;2024-02-28T08:18:26;100786.97;;;7.61;66.66
38038;BME280;23843;51.320;12.340;2024-02-28T08:20:53;100789.38;;;7.71;66.04
38038;BME280;23843;51.320;12.340;2024-02-28T08:23:19;100778.81;;;7.88;66.08
38038;BME280;23843;51.320;12.340;2024-02-28T08:25:44;100775.22;;;8.00;66.42
38038;BME280;23843;51.320;12.340;2024-02-28T08:28:10;100784.41;;;8.14;66.13
38038;BME280;23843;51.320;12.340;2024-02-28T08:30:35;100794.28;;;8.36;66.80
38038;BME280;23843;51.320;12.340;2024-02-28T08:33:01;100786.84;;;8.63;66.30
38038;BME280;23843;51.320;12.340;2024-02-28T08:35:26;100785.13;;;8.95;66.12
38038;BME280;23843;51.320;12.340;2024-02-28T08:37:53;100791.28;;;9.23;66.15
38038;BME280;23843;51.320;12.340;2024-02-28T08:40:18;100797.88;;;9.42;65.77
38038;BME280;23843;51.320;12.340;2024-02-28T08:42:44;100792.91;;;9.51;65.43
38038;BME280;23843;51.320;12.340;2024-02-28T08:45:09;100801.03;;;9.52;65.59
38038;BME280;23843;51.320;12.340;2024-02-28T08:47:35;100804.88;;;9.51;65.15
38038;BME280;23843;51.320;12.340;2024-02-28T08:50:00;100808.31;;;9.47;64.74
38038;BME280;23843;51.320;12.340;2024-02-28T08:52:26;100805.34;;;9.42;64.98
38038;BME280;23843;51.320;12.340;2024-02-28T08:54:53;100808.53;;;9.38;65.30
38038;BME280;23843;51.320;12.340;2024-02-28T08:57:18;100806.41;;;9.34;65.25
38038;BME280;23843;51.320;12.340;2024-02-28T08:59:44;100808.53;;;9.32;65.03
38038;BME280;23843;51.320;12.340;2024-02-28T09:02:09;100821.56;;;9.25;65.19
38038;BME280;23843;51.320;12.340;2024-02-28T09:04:35;100821.56;;;9.18;65.07
38038;BME280;23843;51.320;12.340;2024-02-28T09:07:00;100823.06;;;9.14;64.74
38038;BME280;23843;51.320;12.340;2024-02-28T09:09:26;100827.34;;;9.10;64.89
38038;BME280;23843;51.320;12.340;2024-02-28T09:11:53;100830.31;;;9.02;64.91
38038;BME280;23843;51.320;12.340;2024-02-28T09:14:18;100829.47;;;8.95;65.04
38038;BME280;23843;51.320;12.340;2024-02-28T09:16:44;100819.25;;;8.89;65.04
38038;BME280;23843;51.320;12.340;2024-02-28T09:19:10;100821.38;;;8.87;65.02
38038;BME280;23843;51.320;12.340;2024-02-28T09:21:35;100822.03;;;8.82;64.62
38038;BME280;23843;51.320;12.340;2024-02-28T09:24:01;100827.31;;;8.77;64.54
38038;BME280;23843;51.320;12.340;2024-02-28T09:26:26;100824.78;;;8.69;64.98
38038;BME280;23843;51.320;12.340;2024-02-28T09:28:53;100829.69;;;8.61;64.54
38038;BME280;23843;51.320;12.340;2024-02-28T09:31:19;100824.13;;;8.54;64.82
38038;BME280;23843;51.320;12.340;2024-02-28T09:33:44;100821.78;;;8.51;64.74
38038;BME280;23843;51.320;12.340;2024-02-28T09:36:10;100828.56;;;8.55;64.52
38038;BME280;23843;51.320;12.340;2024-02-28T09:38:35;100823.94;;;8.69;65.17
38038;BME280;23843;51.320;12.340;2024-02-28T09:41:01;100826.06;;;8.86;65.48
38038;BME280;23843;51.320;12.340;2024-02-28T09:43:29;100819.44;;;9.20;65.66
38038;BME280;23843;51.320;12.340;2024-02-28T09:45:58;100813.13;;;9.77;65.83
38038;BME280;23843;51.320;12.340;2024-02-28T09:48:27;100811.63;;;10.26;65.62
38038;BME280;23843;51.320;12.340;2024-02-28T09:50:52;100809.47;;;10.60;65.42
38038;BME280;23843;51.320;12.340;2024-02-28T09:53:18;100798.25;;;10.79;64.97
38038;BME280;23843;51.320;12.340;2024-02-28T09:55:44;100812.59;;;11.01;65.29
38038;BME280;23843;51.320;12.340;2024-02-28T09:58:10;100811.81;;;11.37;65.15
38038;BME280;23843;51.320;12.340;2024-02-28T10:00:37;100815.22;;;11.82;64.54
38038;BME280;23843;51.320;12.340;2024-02-28T10:03:05;100814.41;;;12.12;64.08
38038;BME280;23843;51.320;12.340;2024-02-28T10:05:32;100821.41;;;12.32;63.31
38038;BME280;23843;51.320;12.340;2024-02-28T10:07:58;100821.19;;;12.34;62.51
38038;BME280;23843;51.320;12.340;2024-02-28T10:10:24;100822.72;;;12.30;62.25
38038;BME280;23843;51.320;12.340;2024-02-28T10:12:49;100825.38;;;12.25;62.66
38038;BME280;23843;51.320;12.340;2024-02-28T10:15:15;100833.81;;;12.18;62.58
38038;BME280;23843;51.320;12.340;2024-02-28T10:17:40;100829.19;;;12.12;62.51
38038;BME280;23843;51.320;12.340;2024-02-28T10:20:08;100822.16;;;12.09;62.32
38038;BME280;23843;51.320;12.340;2024-02-28T10:22:34;100833.75;;;12.06;62.03
38038;BME280;23843;51.320;12.340;2024-02-28T10:25:00;100842.81;;;12.02;62.41
38038;BME280;23843;51.320;12.340;2024-02-28T10:27:26;100836.69;;;11.93;62.42
38038;BME280;23843;51.320;12.340;2024-02-28T10:29:51;100840.28;;;11.82;61.88
38038;BME280;23843;51.320;12.340;2024-02-28T10:32:17;100840.00;;;11.65;62.11
38038;BME280;23843;51.320;12.340;2024-02-28T10:34:43;100837.72;;;11.56;62.08
38038;BME280;23843;51.320;12.340;2024-02-28T10:37:10;100851.06;;;11.47;62.43
38038;BME280;23843;51.320;12.340;2024-02-28T10:39:35;100853.78;;;11.36;62.46
38038;BME280;23843;51.320;12.340;2024-02-28T10:42:03;100859.47;;;11.22;62.09
38038;BME280;23843;51.320;12.340;2024-02-28T10:44:30;100862.53;;;11.14;62.36
38038;BME280;23843;51.320;12.340;2024-02-28T10:46:56;100863.66;;;11.07;62.11
38038;BME280;23843;51.320;12.340;2024-02-28T10:49:22;100869.66;;;11.04;62.55
38038;BME280;23843;51.320;12.340;2024-02-28T10:51:49;100865.41;;;11.01;62.33
38038;BME280;23843;51.320;12.340;2024-02-28T10:54:16;100873.97;;;11.00;62.49
38038;BME280;23843;51.320;12.340;2024-02-28T10:56:45;100870.19;;;10.94;61.91
38038;BME280;23843;51.320;12.340;2024-02-28T10:59:11;100876.66;;;10.88;61.97
38038;BME280;23843;51.320;12.340;2024-02-28T11:01:39;100865.38;;;10.76;62.15
38038;BME280;23843;51.320;12.340;2024-02-28T11:04:05;100874.19;;;10.67;62.44
38038;BME280;23843;51.320;12.340;2024-02-28T11:06:31;100871.47;;;10.60;62.09
38038;BME280;23843;51.320;12.340;2024-02-28T11:08:59;100875.56;;;10.58;62.54
38038;BME280;23843;51.320;12.340;2024-02-28T11:11:30;100872.78;;;10.58;62.25
38038;BME280;23843;51.320;12.340;2024-02-28T11:13:56;100868.69;;;10.60;62.05
38038;BME280;23843;51.320;12.340;2024-02-28T11:16:29;100872.72;;;10.64;62.15
38038;BME280;23843;51.320;12.340;2024-02-28T11:18:54;100875.06;;;10.67;62.00
38038;BME280;23843;51.320;12.340;2024-02-28T11:21:23;100881.28;;;10.63;62.33
38038;BME280;23843;51.320;12.340;2024-02-28T11:23:48;100878.34;;;10.58;61.93
38038;BME280;23843;51.320;12.340;2024-02-28T11:26:14;100872.13;;;10.56;61.62
38038;BME280;23843;51.320;12.340;2024-02-28T11:28:40;100876.84;;;10.55;61.89
38038;BME280;23843;51.320;12.340;2024-02-28T11:31:06;100871.72;;;10.52;61.92
38038;BME280;23843;51.320;12.340;2024-02-28T11:33:32;100868.13;;;10.51;61.77
38038;BME280;23843;51.320;12.340;2024-02-28T11:35:57;100875.19;;;10.47;61.73
38038;BME280;23843;51.320;12.340;2024-02-28T11:38:24;100869.44;;;10.42;61.69
38038;BME280;23843;51.320;12.340;2024-02-28T11:40:49;100871.59;;;10.40;61.69
38038;BME280;23843;51.320;12.340;2024-02-28T11:43:15;100875.66;;;10.38;61.60
38038;BME280;23843;51.320;12.340;2024-02-28T11:45:42;100877.59;;;10.37;61.89
38038;BME280;23843;51.320;12.340;2024-02-28T11:48:07;100874.81;;;10.37;61.83
38038;BME280;23843;51.320;12.340;2024-02-28T11:50:33;100882.91;;;10.39;61.80
38038;BME280;23843;51.320;12.340;2024-02-28T11:52:58;100880.97;;;10.39;61.67
38038;BME280;23843;51.320;12.340;2024-02-28T11:55:24;100881.19;;;10.38;61.77
38038;BME280;23843;51.320;12.340;2024-02-28T11:57:50;100879.28;;;10.38;61.42
38038;BME280;23843;51.320;12.340;2024-02-28T12:00:16;100878.66;;;10.36;61.50
38038;BME280;23843;51.320;12.340;2024-02-28T12:02:43;100876.97;;;10.35;61.93
38038;BME280;23843;51.320;12.340;2024-02-28T12:05:08;100883.16;;;10.37;61.48
38038;BME280;23843;51.320;12.340;2024-02-28T12:07:34;100888.72;;;10.37;61.72
38038;BME280;23843;51.320;12.340;2024-02-28T12:10:00;100883.38;;;10.36;61.66
38038;BME280;23843;51.320;12.340;2024-02-28T12:12:27;100870.75;;;10.33;61.59
38038;BME280;23843;51.320;12.340;2024-02-28T12:14:52;100879.53;;;10.30;61.21
38038;BME280;23843;51.320;12.340;2024-02-28T12:17:18;100875.69;;;10.31;61.56
38038;BME280;23843;51.320;12.340;2024-02-28T12:19:45;100876.53;;;10.32;61.67
38038;BME280;23843;51.320;12.340;2024-02-28T12:22:10;100879.31;;;10.32;61.37
38038;BME280;23843;51.320;12.340;2024-02-28T12:24:36;100875.28;;;10.28;61.22
38038;BME280;23843;51.320;12.340;2024-02-28T12:27:02;100874.84;;;10.24;61.32
38038;BME280;23843;51.320;12.340;2024-02-28T12:29:27;100868.06;;;10.20;61.03
38038;BME280;23843;51.320;12.340;2024-02-28T12:31:53;100870.19;;;10.18;61.21
38038;BME280;23843;51.320;12.340;2024-02-28T12:34:18;100868.47;;;10.17;61.39
38038;BME280;23843;51.320;12.340;2024-02-28T12:36:45;100865.72;;;10.17;61.46
38038;BME280;23843;51.320;12.340;2024-02-28T12:39:10;100863.97;;;10.16;61.36
38038;BME280;23843;51.320;12.340;2024-02-28T12:41:36;100865.88;;;10.15;61.10